PAUN/UNK METAR and TAF weather

Enter ICAO airport designator
Station Type Date Time Source
PAUN METAR 2019/10/14 04:56 UTC NOAA

PAUN 140456Z AUTO 08014KT 10SM CLR M01/M04 A2999 RMK AO2 SLP158 T10111044 FZRANO


Station Type Date Time Source
PAUN Decoded METAR 2019/10/14 04:56 UTC NOAA

Unalakleet, AK, United States (PAUN) 63-53N 160-48W 6M
Oct 14, 2019 - 12:56 AM EDT / 2019.10.14 0456 UTC
Wind: from the E (080 degrees) at 16 MPH (14 KT):0
Visibility: 10 mile(s):0
Sky conditions: clear
Temperature: 30.0 F (-1.1 C)
Windchill: 19 F (-7 C):1
Dew Point: 24.1 F (-4.4 C)
Relative Humidity: 78%
Pressure (altimeter): 29.99 in. Hg (1015 hPa)
ob: PAUN 140456Z AUTO 08014KT 10SM CLR M01/M04 A2999 RMK AO2 SLP158 T10111044 FZRANO
cycle: 5

Station Type Date Time Source
PAUN TAF 2019/10/14 06:22 UTC NOAA

TAF PAUN 140520Z 1406/1506 07014KT P6SM SKC
FM141200 09018KT P6SM SCT025
FM142100 09022KT P6SM SCT025

Example: see airport list